Time;durP1;ratioP1;P1;durP2;ratioP2;P2;SDS_P1;SDS_P2;PMS_P1;PMS_P2;Temp;Humidity;BMP_temperature;BMP_pressure;BME280_temperature;BME280_humidity;BME280_pressure;Samples;Min_cycle;Max_cycle;Signal;HPM_P1;HPM_P2
2023/04/27 00:01:11;;;;;;;5.97;3.93;;;8.20;53.40;;;;;;6196103;23;20267;-70
2023/04/27 00:03:37;;;;;;;6.20;3.40;;;8.20;53.50;;;;;;6222475;23;20411;-72
2023/04/27 00:06:04;;;;;;;9.43;4.07;;;8.10;53.40;;;;;;6196669;23;20368;-70
2023/04/27 00:08:29;;;;;;;6.40;3.53;;;8.00;53.70;;;;;;6172372;23;20369;-72
2023/04/27 00:10:55;;;;;;;8.40;4.70;;;8.00;54.00;;;;;;6200186;23;20404;-73
2023/04/27 00:13:21;;;;;;;6.00;4.20;;;8.00;54.10;;;;;;6225043;23;20148;-72
2023/04/27 00:15:47;;;;;;;7.23;4.57;;;8.00;54.30;;;;;;6175300;23;20425;-73
2023/04/27 00:18:13;;;;;;;7.17;4.70;;;7.90;54.90;;;;;;6223258;23;20183;-70
2023/04/27 00:20:39;;;;;;;5.97;4.63;;;7.90;54.50;;;;;;6227612;23;20193;-73
2023/04/27 00:23:05;;;;;;;5.70;3.67;;;8.00;54.70;;;;;;6227431;23;20357;-73
2023/04/27 00:25:31;;;;;;;6.50;4.07;;;8.00;54.70;;;;;;6199474;23;20369;-71
2023/04/27 00:27:57;;;;;;;6.63;4.40;;;8.00;54.80;;;;;;6197347;23;20389;-71
2023/04/27 00:30:23;;;;;;;5.60;4.43;;;8.00;55.00;;;;;;6226424;23;20196;-70
2023/04/27 00:32:49;;;;;;;9.93;5.00;;;7.90;55.10;;;;;;6198127;23;20381;-72
2023/04/27 00:35:16;;;;;;;5.43;3.90;;;8.00;55.40;;;;;;6203330;23;20252;-73
2023/04/27 00:37:41;;;;;;;10.00;4.00;;;8.00;55.30;;;;;;6231524;23;20388;-72
2023/04/27 00:40:08;;;;;;;6.97;3.23;;;8.00;55.40;;;;;;6181082;23;20174;-73
2023/04/27 00:42:34;;;;;;;6.50;4.30;;;7.90;55.60;;;;;;6182065;23;20149;-71
2023/04/27 00:45:00;;;;;;;10.23;4.17;;;7.90;55.90;;;;;;6179725;23;20365;-74
2023/04/27 00:47:27;;;;;;;10.50;5.10;;;7.80;56.10;;;;;;6228385;23;20380;-72
2023/04/27 00:49:53;;;;;;;7.17;4.50;;;7.90;56.10;;;;;;6196477;23;20407;-72
2023/04/27 00:52:18;;;;;;;8.57;4.60;;;7.90;56.20;;;;;;6196641;23;20527;-71
2023/04/27 00:54:45;;;;;;;9.40;4.17;;;7.80;56.30;;;;;;6221857;23;20168;-70
2023/04/27 00:57:10;;;;;;;9.47;4.10;;;7.80;56.30;;;;;;6223715;23;20134;-71
2023/04/27 00:59:36;;;;;;;7.83;5.20;;;7.80;56.60;;;;;;6221943;23;20533;-71
2023/04/27 01:02:01;;;;;;;7.03;4.77;;;7.70;56.80;;;;;;6198052;23;20138;-72
2023/04/27 01:04:28;;;;;;;9.33;4.10;;;7.70;57.20;;;;;;6224582;23;20157;-72
2023/04/27 01:06:54;;;;;;;10.83;4.73;;;7.70;58.00;;;;;;6225028;23;20146;-70
2023/04/27 01:09:20;;;;;;;6.00;4.30;;;7.60;57.70;;;;;;6223615;23;20400;-72
2023/04/27 01:11:50;;;;;;;6.73;4.27;;;7.60;58.00;;;;;;6201148;23;20602;-70
2023/04/27 01:14:17;;;;;;;9.83;4.80;;;7.50;58.40;;;;;;6209287;23;20421;-71
2023/04/27 01:16:43;;;;;;;5.50;4.90;;;7.50;58.70;;;;;;6197114;23;20372;-71
2023/04/27 01:19:08;;;;;;;7.00;4.77;;;7.50;58.70;;;;;;6204130;23;20388;-73
2023/04/27 01:21:34;;;;;;;7.33;4.90;;;7.40;59.50;;;;;;6185073;23;20180;-71
2023/04/27 01:24:00;;;;;;;7.20;4.43;;;7.40;59.40;;;;;;6231789;23;20376;-72
2023/04/27 01:26:25;;;;;;;9.10;5.20;;;7.50;59.50;;;;;;6197434;23;20158;-70
2023/04/27 01:28:51;;;;;;;9.10;5.30;;;7.40;59.60;;;;;;6195962;23;20162;-71
2023/04/27 01:31:16;;;;;;;10.07;6.37;;;7.40;59.70;;;;;;6222273;23;20130;-70
2023/04/27 01:33:42;;;;;;;6.27;4.00;;;7.40;60.30;;;;;;6223077;23;20161;-72
2023/04/27 01:36:09;;;;;;;6.97;4.70;;;7.40;60.60;;;;;;6223639;23;20142;-71
2023/04/27 01:38:36;;;;;;;9.50;5.83;;;7.30;61.00;;;;;;6225070;23;20205;-73
2023/04/27 01:41:04;;;;;;;9.07;4.83;;;7.10;61.80;;;;;;6225366;23;20357;-72
2023/04/27 01:43:30;;;;;;;7.30;4.70;;;7.00;62.80;;;;;;6198429;23;20395;-72
2023/04/27 01:46:06;;;;;;;8.43;5.40;;;7.10;63.60;;;;;;6197194;23;20473;-70
2023/04/27 01:48:33;;;;;;;6.17;4.97;;;7.00;63.60;;;;;;6225683;23;20365;-70
2023/04/27 01:50:59;;;;;;;10.37;6.30;;;6.90;64.40;;;;;;6197706;23;20439;-71
2023/04/27 01:53:25;;;;;;;7.60;5.37;;;6.80;65.70;;;;;;6174080;23;20361;-70
2023/04/27 01:55:51;;;;;;;12.67;6.67;;;6.80;66.20;;;;;;6199057;23;20369;-70
2023/04/27 01:58:17;;;;;;;8.53;6.20;;;6.80;66.40;;;;;;6199153;23;20404;-70
2023/04/27 02:00:42;;;;;;;9.10;5.43;;;6.80;67.20;;;;;;6197669;23;20170;-70
2023/04/27 02:03:08;;;;;;;10.37;5.53;;;6.70;67.30;;;;;;6224000;23;20150;-70
2023/04/27 02:05:33;;;;;;;11.27;5.30;;;6.70;67.90;;;;;;6224778;23;20170;-70
2023/04/27 02:07:59;;;;;;;7.53;5.27;;;6.60;68.90;;;;;;6199125;23;20149;-70
2023/04/27 02:10:25;;;;;;;9.87;5.30;;;6.50;70.40;;;;;;6198597;23;20165;-71
2023/04/27 02:12:54;;;;;;;8.40;5.43;;;6.50;71.20;;;;;;6199181;23;20178;-71
2023/04/27 02:15:19;;;;;;;7.90;5.53;;;6.40;72.00;;;;;;6198455;23;20783;-72
2023/04/27 02:17:45;;;;;;;8.23;5.63;;;6.40;73.30;;;;;;6197950;23;20141;-70
2023/04/27 02:20:11;;;;;;;9.80;5.30;;;6.40;73.70;;;;;;6198743;23;20212;-70
2023/04/27 02:22:44;;;;;;;8.97;5.97;;;6.40;74.40;;;;;;6224746;23;20369;-70
2023/04/27 02:25:11;;;;;;;13.80;5.07;;;6.30;74.80;;;;;;6198154;23;20178;-72
2023/04/27 02:27:38;;;;;;;11.60;6.40;;;6.30;76.70;;;;;;6225147;23;20380;-69
2023/04/27 02:30:08;;;;;;;8.70;5.40;;;6.20;77.40;;;;;;6195820;23;20489;-71
2023/04/27 02:32:34;;;;;;;6.13;4.70;;;6.10;78.60;;;;;;6221633;23;20369;-70
2023/04/27 02:35:01;;;;;;;12.20;5.10;;;6.10;79.30;;;;;;6222837;23;20365;-70
2023/04/27 02:37:28;;;;;;;10.73;5.80;;;6.00;80.80;;;;;;6197908;23;20554;-71
2023/04/27 02:39:55;;;;;;;9.03;5.17;;;6.10;82.30;;;;;;6172465;23;20392;-70
2023/04/27 02:42:21;;;;;;;9.80;5.93;;;6.00;83.00;;;;;;6196329;23;20442;-70
2023/04/27 02:44:47;;;;;;;10.17;6.13;;;5.90;83.50;;;;;;6223885;23;20818;-70
2023/04/27 02:47:13;;;;;;;9.03;6.07;;;6.00;84.10;;;;;;6222996;23;20138;-70
2023/04/27 02:49:38;;;;;;;8.20;5.60;;;5.90;85.30;;;;;;6222595;23;20158;-73
2023/04/27 02:52:04;;;;;;;11.33;5.50;;;5.90;86.60;;;;;;6222518;23;20357;-69
2023/04/27 02:54:30;;;;;;;10.40;5.23;;;5.90;86.90;;;;;;6198205;23;20401;-69
2023/04/27 02:56:56;;;;;;;12.43;6.00;;;5.90;86.90;;;;;;6197488;23;20857;-69
2023/04/27 02:59:22;;;;;;;12.43;4.63;;;5.90;87.50;;;;;;6201827;23;20393;-70
2023/04/27 03:01:48;;;;;;;8.90;5.63;;;5.80;88.20;;;;;;6205721;23;20150;-71
2023/04/27 03:04:13;;;;;;;9.73;5.87;;;5.80;89.30;;;;;;6227095;23;20176;-72
2023/04/27 03:06:40;;;;;;;7.27;5.20;;;5.70;89.50;;;;;;6196718;23;20130;-74
2023/04/27 03:09:06;;;;;;;12.23;5.77;;;5.70;90.60;;;;;;6195914;23;20409;-70
2023/04/27 03:11:32;;;;;;;9.17;6.37;;;5.80;89.80;;;;;;6222718;23;20404;-71
2023/04/27 03:13:57;;;;;;;8.43;5.70;;;5.70;90.00;;;;;;6222853;23;20418;-70
2023/04/27 03:16:23;;;;;;;9.10;5.00;;;5.60;90.50;;;;;;6223551;23;20357;-70
2023/04/27 03:18:48;;;;;;;10.30;5.37;;;5.50;91.00;;;;;;6221872;23;20138;-70
2023/04/27 03:21:15;;;;;;;8.97;5.13;;;5.50;91.50;;;;;;6223364;23;20130;-70
2023/04/27 03:23:41;;;;;;;7.63;4.53;;;5.40;91.90;;;;;;6223210;23;20181;-72
2023/04/27 03:26:12;;;;;;;13.83;6.00;;;5.40;92.60;;;;;;6222328;23;20400;-70
2023/04/27 03:28:40;;;;;;;9.17;5.10;;;5.30;93.00;;;;;;6221215;23;20130;-69
2023/04/27 03:31:08;;;;;;;9.27;5.17;;;5.30;93.40;;;;;;6196654;23;20634;-70
2023/04/27 03:33:33;;;;;;;11.00;5.73;;;5.30;93.80;;;;;;6222261;23;20384;-70
2023/04/27 03:35:59;;;;;;;10.43;6.03;;;5.20;94.00;;;;;;6222217;23;20416;-70
2023/04/27 03:38:25;;;;;;;6.23;4.50;;;5.20;94.50;;;;;;6223611;23;20185;-71
2023/04/27 03:40:52;;;;;;;9.53;5.93;;;5.20;94.70;;;;;;6170288;23;20396;-69
2023/04/27 03:43:19;;;;;;;9.30;5.13;;;5.10;95.10;;;;;;6170643;23;20706;-71
2023/04/27 03:45:45;;;;;;;10.00;6.03;;;5.10;95.30;;;;;;6197190;23;20440;-71
2023/04/27 03:48:11;;;;;;;8.40;6.07;;;5.20;95.30;;;;;;6198847;23;20754;-72
2023/04/27 03:50:37;;;;;;;7.73;5.47;;;5.20;94.80;;;;;;6195018;23;20166;-70
2023/04/27 03:53:02;;;;;;;8.00;5.23;;;5.20;94.90;;;;;;6195497;23;20361;-69
2023/04/27 03:55:28;;;;;;;9.00;5.10;;;5.10;95.50;;;;;;6195431;23;20138;-70
2023/04/27 03:57:54;;;;;;;10.67;5.47;;;5.00;95.80;;;;;;6221263;23;20373;-72
2023/04/27 04:00:20;;;;;;;8.77;5.70;;;5.00;96.40;;;;;;6169820;23;20177;-70
2023/04/27 04:02:46;;;;;;;8.87;5.87;;;4.90;96.80;;;;;;6195378;23;20443;-71
2023/04/27 04:05:13;;;;;;;12.13;5.57;;;4.90;97.10;;;;;;6222251;23;20412;-70
2023/04/27 04:07:40;;;;;;;8.07;5.77;;;4.90;97.30;;;;;;6196274;23;20422;-70
2023/04/27 04:10:07;;;;;;;13.43;5.20;;;4.90;97.80;;;;;;6195450;23;20392;-70
2023/04/27 04:12:33;;;;;;;11.37;5.63;;;4.90;97.70;;;;;;6222452;23;20397;-70
2023/04/27 04:14:59;;;;;;;8.50;5.90;;;4.90;97.60;;;;;;6197341;23;20810;-72
2023/04/27 04:17:25;;;;;;;8.27;5.80;;;4.90;97.80;;;;;;6199981;23;20412;-71
2023/04/27 04:19:51;;;;;;;10.80;6.30;;;4.90;97.90;;;;;;6196775;23;20397;-70
2023/04/27 04:22:17;;;;;;;7.83;5.37;;;4.90;98.00;;;;;;6200374;23;20608;-71
2023/04/27 04:24:44;;;;;;;12.50;5.97;;;4.80;98.20;;;;;;6195781;23;20177;-70
2023/04/27 04:27:09;;;;;;;12.10;6.03;;;4.80;98.60;;;;;;6222499;23;20365;-72
2023/04/27 04:29:35;;;;;;;10.37;5.87;;;4.80;98.50;;;;;;6196072;23;20172;-71
2023/04/27 04:32:00;;;;;;;12.13;6.00;;;4.80;98.70;;;;;;6222942;23;20191;-70
2023/04/27 04:34:29;;;;;;;10.30;6.17;;;4.80;98.50;;;;;;6195607;23;20160;-71
2023/04/27 04:36:56;;;;;;;8.63;5.77;;;4.80;98.70;;;;;;6196038;23;20393;-70
2023/04/27 04:39:22;;;;;;;9.40;6.50;;;4.90;98.40;;;;;;6221124;23;20590;-71
2023/04/27 04:41:48;;;;;;;9.00;5.90;;;5.00;98.30;;;;;;6196279;23;20826;-69
2023/04/27 04:44:15;;;;;;;14.07;7.30;;;5.00;98.20;;;;;;6172184;23;20822;-72
2023/04/27 04:46:41;;;;;;;14.17;6.97;;;5.00;97.90;;;;;;6181274;23;20393;-70
2023/04/27 04:49:07;;;;;;;12.43;5.70;;;5.10;97.70;;;;;;6224938;23;20399;-70
2023/04/27 04:51:33;;;;;;;14.63;7.27;;;5.10;97.50;;;;;;6224337;23;20449;-71
2023/04/27 04:53:58;;;;;;;9.20;6.13;;;5.20;97.50;;;;;;6222710;23;20138;-72
2023/04/27 04:56:24;;;;;;;9.90;5.80;;;5.20;97.20;;;;;;6198913;23;20372;-70
2023/04/27 04:58:52;;;;;;;14.23;6.40;;;5.20;97.10;;;;;;6197269;23;20169;-70
2023/04/27 05:01:18;;;;;;;14.57;6.57;;;5.40;96.80;;;;;;6224211;23;20837;-70
2023/04/27 05:03:43;;;;;;;9.83;5.90;;;5.50;96.20;;;;;;6200590;23;20180;-71
2023/04/27 05:06:09;;;;;;;12.97;6.60;;;5.40;96.10;;;;;;6201692;23;20173;-72
2023/04/27 05:08:34;;;;;;;10.37;6.27;;;5.50;96.30;;;;;;6197627;23;20145;-69
2023/04/27 05:11:00;;;;;;;9.47;6.30;;;5.50;96.10;;;;;;6226946;23;20186;-71
2023/04/27 05:13:26;;;;;;;13.57;6.50;;;5.60;95.80;;;;;;6184387;23;20138;-72
2023/04/27 05:15:52;;;;;;;7.90;6.13;;;5.60;95.20;;;;;;6210490;23;20160;-71
2023/04/27 05:18:18;;;;;;;11.30;5.53;;;5.60;95.10;;;;;;6208517;23;20372;-73
2023/04/27 05:20:44;;;;;;;10.90;6.00;;;5.60;95.20;;;;;;6233625;23;20424;-74
2023/04/27 05:23:09;;;;;;;11.50;6.73;;;5.70;95.10;;;;;;6182367;23;20365;-73
2023/04/27 05:25:40;;;;;;;9.67;7.30;;;5.80;94.30;;;;;;6233604;23;20166;-74
2023/04/27 05:28:07;;;;;;;9.90;6.77;;;5.90;94.10;;;;;;6228492;23;20141;-72
2023/04/27 05:30:33;;;;;;;9.80;6.33;;;6.20;93.10;;;;;;6201929;23;20397;-72
2023/04/27 05:32:58;;;;;;;13.43;7.50;;;6.50;91.70;;;;;;6226649;23;20385;-73
2023/04/27 05:35:24;;;;;;;9.57;6.70;;;6.80;90.20;;;;;;6205125;23;20153;-75
2023/04/27 05:37:50;;;;;;;12.43;7.87;;;7.10;87.80;;;;;;6229968;23;20160;-74
2023/04/27 05:40:15;;;;;;;12.00;7.27;;;7.70;78.20;;;;;;6232388;23;20158;-71
2023/04/27 05:42:41;;;;;;;9.27;6.60;;;7.90;75.40;;;;;;6205489;23;20185;-75
2023/04/27 05:45:07;;;;;;;8.43;6.20;;;8.20;74.70;;;;;;6229019;23;20565;-73
2023/04/27 05:47:32;;;;;;;8.93;6.20;;;8.50;72.50;;;;;;6202348;23;20146;-72
2023/04/27 05:49:58;;;;;;;11.40;7.30;;;8.60;67.10;;;;;;6227207;23;20400;-74
2023/04/27 05:52:29;;;;;;;14.37;6.20;;;8.70;66.00;;;;;;6202789;23;20130;-73
2023/04/27 05:54:55;;;;;;;13.23;7.93;;;8.90;66.00;;;;;;6227819;23;20141;-75
2023/04/27 05:57:21;;;;;;;15.43;7.73;;;9.10;61.60;;;;;;6174587;23;20385;-71
2023/04/27 05:59:46;;;;;;;10.23;7.63;;;9.20;60.90;;;;;;6225411;23;20397;-70
2023/04/27 06:02:12;;;;;;;10.97;6.47;;;9.20;59.60;;;;;;6225840;23;20138;-71
2023/04/27 06:04:37;;;;;;;14.00;8.17;;;9.20;60.30;;;;;;6226232;23;20181;-73
2023/04/27 06:07:10;;;;;;;10.50;7.30;;;9.30;59.80;;;;;;6228950;23;20162;-70
2023/04/27 06:09:36;;;;;;;8.83;5.63;;;9.40;59.50;;;;;;6226490;23;20192;-70
2023/04/27 06:12:06;;;;;;;16.83;9.03;;;9.40;59.50;;;;;;6225921;23;20845;-72
2023/04/27 06:14:33;;;;;;;9.63;7.10;;;9.40;59.10;;;;;;6225067;23;20361;-73
2023/04/27 06:16:58;;;;;;;11.07;6.43;;;9.50;58.60;;;;;;6226118;23;20362;-73
2023/04/27 06:19:25;;;;;;;10.13;6.70;;;9.40;58.50;;;;;;6225310;23;20642;-73
2023/04/27 06:21:52;;;;;;;8.50;6.30;;;9.40;58.70;;;;;;6175232;23;20166;-74
2023/04/27 06:24:20;;;;;;;11.73;6.07;;;9.30;58.80;;;;;;6229410;23;20444;-73
2023/04/27 06:26:45;;;;;;;17.07;8.53;;;9.50;58.80;;;;;;6173562;23;20786;-73
2023/04/27 06:29:11;;;;;;;12.97;8.23;;;9.30;58.10;;;;;;6176402;23;20397;-72
2023/04/27 06:31:36;;;;;;;11.03;7.67;;;9.30;58.60;;;;;;6179409;23;20161;-75
2023/04/27 06:34:03;;;;;;;12.17;7.37;;;9.40;58.80;;;;;;6234653;23;20368;-74
2023/04/27 06:36:30;;;;;;;12.40;7.57;;;9.40;58.70;;;;;;6230402;23;20135;-73
2023/04/27 06:38:55;;;;;;;13.50;8.23;;;9.50;58.60;;;;;;6227968;23;20512;-74
2023/04/27 06:41:25;;;;;;;14.03;8.83;;;9.70;57.00;;;;;;6177884;23;20401;-77
2023/04/27 06:43:51;;;;;;;11.80;6.70;;;9.60;56.40;;;;;;6179345;23;20149;-76
2023/04/27 06:46:17;;;;;;;17.73;10.23;;;9.60;57.10;;;;;;6204311;23;20408;-74
2023/04/27 06:48:43;;;;;;;12.23;8.13;;;9.60;56.40;;;;;;6202692;23;20423;-76
2023/04/27 06:51:08;;;;;;;13.60;8.83;;;9.50;56.30;;;;;;6231670;23;20134;-73
2023/04/27 06:53:34;;;;;;;14.07;8.03;;;9.60;56.50;;;;;;6206672;23;20209;-75
2023/04/27 06:56:00;;;;;;;10.77;7.70;;;9.60;55.90;;;;;;6177588;23;20381;-74
2023/04/27 06:58:26;;;;;;;11.77;7.60;;;9.60;55.70;;;;;;6228502;23;20157;-74
2023/04/27 07:00:52;;;;;;;14.83;8.10;;;9.60;55.30;;;;;;6178253;23;20401;-75
2023/04/27 07:03:18;;;;;;;9.47;6.83;;;9.50;55.40;;;;;;6178744;23;20193;-73
2023/04/27 07:05:44;;;;;;;9.80;7.17;;;9.60;55.40;;;;;;6177218;23;20408;-76
2023/04/27 07:08:09;;;;;;;10.93;6.97;;;9.50;55.80;;;;;;6202598;23;20202;-74
2023/04/27 07:10:35;;;;;;;10.30;7.10;;;9.50;55.80;;;;;;6204310;23;20162;-75
2023/04/27 07:13:01;;;;;;;9.30;6.90;;;9.60;55.70;;;;;;6202505;23;20220;-75
2023/04/27 07:15:26;;;;;;;16.27;8.40;;;9.70;55.60;;;;;;6228010;23;20137;-74
2023/04/27 07:17:55;;;;;;;13.87;8.23;;;9.70;55.00;;;;;;6176477;23;20149;-71
2023/04/27 07:20:21;;;;;;;14.77;8.67;;;9.80;54.90;;;;;;6202290;23;20212;-75
2023/04/27 07:22:46;;;;;;;15.60;9.30;;;9.80;54.40;;;;;;6204930;23;20456;-74
2023/04/27 07:25:12;;;;;;;9.73;7.10;;;9.90;54.40;;;;;;6176113;23;20439;-75
2023/04/27 07:27:38;;;;;;;16.30;8.47;;;10.00;53.60;;;;;;6232005;23;20145;-78
2023/04/27 07:30:07;;;;;;;10.97;6.70;;;10.00;53.40;;;;;;6235383;23;20173;-77
2023/04/27 07:32:33;;;;;;;10.00;6.77;;;10.00;53.30;;;;;;6205331;23;20419;-80
2023/04/27 07:35:02;;;;;;;11.67;8.27;;;10.10;53.10;;;;;;6208440;23;20369;-74
2023/04/27 07:37:28;;;;;;;12.23;7.40;;;10.10;53.00;;;;;;6203725;23;20433;-74
2023/04/27 07:39:54;;;;;;;9.13;6.00;;;10.10;52.90;;;;;;6141702;23;20558;-73
2023/04/27 07:42:23;;;;;;;11.50;7.33;;;10.20;52.90;;;;;;6139615;23;20376;-74
2023/04/27 07:44:50;;;;;;;13.03;8.80;;;10.30;52.70;;;;;;6094685;23;20171;-75
2023/04/27 07:47:17;;;;;;;11.63;8.20;;;10.40;51.90;;;;;;6114407;23;20360;-75
2023/04/27 07:49:45;;;;;;;12.60;8.10;;;10.40;51.90;;;;;;6090049;23;20406;-74
2023/04/27 07:52:16;;;;;;;8.83;6.63;;;10.50;51.70;;;;;;6091299;23;20372;-74
2023/04/27 07:54:42;;;;;;;8.50;6.60;;;10.60;51.90;;;;;;6115613;23;20382;-75
2023/04/27 07:57:10;;;;;;;14.93;7.37;;;10.70;51.60;;;;;;6139857;23;20372;-76
2023/04/27 07:59:36;;;;;;;9.60;6.43;;;10.80;50.80;;;;;;6138645;23;20168;-74
2023/04/27 08:02:06;;;;;;;9.23;6.50;;;10.80;50.20;;;;;;6116908;23;20379;-76
2023/04/27 08:04:31;;;;;;;15.70;8.30;;;10.90;49.90;;;;;;6108470;23;20471;-76
2023/04/27 08:06:57;;;;;;;11.73;8.97;;;10.90;49.80;;;;;;6110433;23;20377;-76
2023/04/27 08:09:23;;;;;;;11.40;7.93;;;10.90;49.70;;;;;;6111188;23;20290;-77
2023/04/27 08:11:49;;;;;;;11.80;8.70;;;11.10;49.50;;;;;;6112334;23;20153;-72
2023/04/27 08:14:14;;;;;;;12.47;9.30;;;11.10;48.80;;;;;;6114274;23;20155;-75
2023/04/27 08:16:41;;;;;;;12.77;9.50;;;11.20;48.40;;;;;;6091328;23;20413;-72
2023/04/27 08:19:10;;;;;;;16.10;9.40;;;11.20;48.10;;;;;;6089787;23;20176;-75
2023/04/27 08:21:37;;;;;;;11.90;8.87;;;11.50;47.20;;;;;;6113488;23;20451;-72
2023/04/27 08:24:05;;;;;;;10.43;7.70;;;11.60;46.70;;;;;;6109407;23;20372;-74
2023/04/27 08:26:31;;;;;;;8.63;6.70;;;11.40;46.20;;;;;;6109831;23;20675;-75
2023/04/27 08:28:58;;;;;;;12.10;8.93;;;11.50;46.60;;;;;;6106187;23;20401;-73
2023/04/27 08:31:24;;;;;;;14.47;8.00;;;11.70;45.80;;;;;;6083663;23;20376;-75
2023/04/27 08:33:51;;;;;;;11.73;8.37;;;11.80;45.50;;;;;;6109205;23;20671;-76
2023/04/27 08:36:18;;;;;;;15.00;8.00;;;11.80;45.50;;;;;;6109985;23;20384;-73
2023/04/27 08:38:45;;;;;;;14.03;9.37;;;11.90;44.80;;;;;;6114032;23;20380;-74
2023/04/27 08:41:16;;;;;;;10.47;7.83;;;12.10;44.40;;;;;;6142109;23;20422;-76
2023/04/27 08:43:42;;;;;;;13.37;8.30;;;12.10;44.10;;;;;;6116536;23;20379;-73
2023/04/27 08:46:08;;;;;;;12.10;7.33;;;12.20;43.80;;;;;;6141615;23;20631;-77
2023/04/27 08:48:33;;;;;;;11.00;7.33;;;12.10;43.90;;;;;;6116934;23;20159;-78
2023/04/27 08:51:01;;;;;;;10.37;8.53;;;12.20;44.10;;;;;;6117964;23;20120;-77
2023/04/27 08:53:27;;;;;;;10.73;8.40;;;12.40;43.10;;;;;;6143366;23;20148;-74
2023/04/27 08:55:55;;;;;;;10.13;7.70;;;12.50;42.70;;;;;;6116344;23;20395;-75
2023/04/27 08:58:21;;;;;;;9.67;7.10;;;12.50;43.10;;;;;;6139549;23;20146;-75
2023/04/27 09:00:48;;;;;;;13.63;8.90;;;12.50;42.70;;;;;;6136897;23;20399;-72
2023/04/27 09:03:24;;;;;;;13.20;8.07;;;12.60;42.70;;;;;;6138565;23;20136;-75
2023/04/27 09:05:50;;;;;;;11.67;8.47;;;12.60;42.60;;;;;;6093686;23;20403;-75
2023/04/27 09:08:16;;;;;;;10.63;8.30;;;12.60;42.80;;;;;;6065373;23;20371;-74
2023/04/27 09:10:50;;;;;;;14.57;9.07;;;12.50;42.70;;;;;;6116657;23;20391;-76
2023/04/27 09:13:16;;;;;;;12.03;9.60;;;12.50;42.40;;;;;;6115265;23;20144;-75
2023/04/27 09:15:48;;;;;;;9.13;6.90;;;12.50;42.90;;;;;;6138764;23;20443;-76
2023/04/27 09:18:16;;;;;;;12.93;8.20;;;12.60;42.80;;;;;;6090750;23;20375;-74
2023/04/27 09:20:52;;;;;;;9.80;7.70;;;12.90;42.60;;;;;;6141596;23;20412;-76
2023/04/27 09:23:29;;;;;;;9.73;7.70;;;13.00;42.50;;;;;;6117903;23;20407;-75
2023/04/27 09:25:56;;;;;;;15.17;9.40;;;13.20;42.00;;;;;;6094974;23;20372;-78
2023/04/27 09:28:29;;;;;;;13.33;8.60;;;13.30;41.30;;;;;;6118351;23;20494;-75
2023/04/27 09:31:00;;;;;;;12.03;9.20;;;13.50;41.40;;;;;;6117075;23;20517;-76
2023/04/27 09:33:33;;;;;;;11.73;8.60;;;13.50;40.90;;;;;;6140854;23;20419;-78
2023/04/27 09:36:02;;;;;;;10.10;7.30;;;13.40;40.90;;;;;;6117391;23;20418;-75
2023/04/27 09:38:30;;;;;;;12.60;9.30;;;13.60;41.00;;;;;;6094116;23;20365;-76
2023/04/27 09:40:59;;;;;;;17.67;9.17;;;13.60;40.10;;;;;;6114646;23;20435;-76
2023/04/27 09:43:26;;;;;;;13.63;8.40;;;13.70;40.10;;;;;;6117074;23;20366;-77
2023/04/27 09:45:56;;;;;;;10.73;7.63;;;13.70;40.10;;;;;;6138558;23;20384;-75
2023/04/27 09:48:24;;;;;;;7.03;5.77;;;13.80;40.30;;;;;;6091648;23;20373;-76
2023/04/27 09:50:51;;;;;;;7.73;6.90;;;13.80;40.10;;;;;;6116518;23;20467;-76
2023/04/27 09:53:34;;;;;;;12.20;7.33;;;13.90;40.10;;;;;;6090567;23;20384;-78
2023/04/27 09:56:40;;;;;;;14.07;8.83;;;14.10;40.00;;;;;;6092710;23;20426;-79
2023/04/27 09:59:24;;;;;;;15.43;9.87;;;14.30;39.50;;;;;;6141962;23;20396;-77
2023/04/27 10:01:54;;;;;;;10.27;8.20;;;14.30;39.10;;;;;;6120039;23;20374;-76
2023/04/27 10:04:39;;;;;;;10.63;7.70;;;14.20;39.00;;;;;;6147769;23;20383;-75
2023/04/27 10:07:14;;;;;;;10.50;8.27;;;14.20;39.00;;;;;;6125095;23;20920;-76
2023/04/27 10:09:52;;;;;;;14.10;8.63;;;14.40;39.00;;;;;;6099820;23;20738;-76
2023/04/27 10:12:25;;;;;;;15.80;9.17;;;14.40;38.70;;;;;;6125548;23;20460;-76
2023/04/27 10:14:56;;;;;;;13.47;9.03;;;14.50;38.60;;;;;;6123130;23;20513;-76
2023/04/27 10:17:32;;;;;;;8.90;6.60;;;14.40;38.50;;;;;;6095216;23;20377;-75
2023/04/27 10:20:02;;;;;;;11.03;8.20;;;14.40;39.00;;;;;;6119029;23;20505;-76
2023/04/27 10:22:44;;;;;;;12.37;7.40;;;14.60;38.90;;;;;;6094299;23;20464;-77
2023/04/27 10:25:24;;;;;;;12.70;7.70;;;14.80;39.20;;;;;;6092139;23;20784;-75
2023/04/27 10:27:58;;;;;;;13.03;9.57;;;14.90;39.20;;;;;;6093519;23;20382;-77
2023/04/27 10:30:35;;;;;;;10.27;8.80;;;15.00;38.30;;;;;;6118571;23;20460;-76
2023/04/27 10:33:07;;;;;;;12.63;8.83;;;15.30;38.30;;;;;;6092452;23;20375;-77
2023/04/27 10:35:38;;;;;;;9.90;8.07;;;15.30;37.40;;;;;;6096055;23;20415;-76
2023/04/27 10:38:20;;;;;;;10.30;7.53;;;15.20;37.60;;;;;;6096814;23;20409;-77
2023/04/27 10:40:55;;;;;;;14.67;8.37;;;15.20;37.10;;;;;;6145114;23;20439;-77
2023/04/27 10:43:27;;;;;;;11.70;9.40;;;15.10;37.40;;;;;;6142366;23;20360;-77
2023/04/27 10:45:53;;;;;;;14.87;9.87;;;14.90;37.20;;;;;;6094734;23;20479;-76
2023/04/27 10:48:19;;;;;;;10.83;8.63;;;14.80;38.10;;;;;;6120032;23;20366;-74
2023/04/27 10:50:45;;;;;;;9.50;7.07;;;14.90;37.60;;;;;;6120787;23;20409;-76
2023/04/27 10:53:14;;;;;;;13.93;9.50;;;15.00;37.60;;;;;;6096131;23;20367;-77
2023/04/27 10:55:40;;;;;;;13.87;9.50;;;14.80;37.50;;;;;;6097883;23;20494;-77
2023/04/27 10:58:06;;;;;;;12.47;8.47;;;14.60;38.00;;;;;;6145349;23;20364;-76
2023/04/27 11:00:40;;;;;;;13.87;9.87;;;14.60;38.50;;;;;;6118896;23;20286;-75
2023/04/27 11:03:18;;;;;;;12.27;8.60;;;14.70;39.20;;;;;;6117015;23;20140;-76
2023/04/27 11:05:45;;;;;;;13.27;7.43;;;14.90;38.60;;;;;;6118176;23;20375;-75
2023/04/27 11:08:16;;;;;;;11.80;7.50;;;15.20;38.80;;;;;;6094660;23;20376;-75
2023/04/27 11:10:43;;;;;;;8.90;6.37;;;15.50;38.30;;;;;;6090549;23;20410;-75
2023/04/27 11:13:11;;;;;;;13.70;7.27;;;15.80;38.10;;;;;;6118419;23;20372;-77
2023/04/27 11:15:42;;;;;;;12.80;8.30;;;15.90;37.60;;;;;;6122218;23;20407;-77
2023/04/27 11:18:09;;;;;;;10.30;7.27;;;16.10;37.20;;;;;;6095612;23;20368;-78
2023/04/27 11:20:35;;;;;;;11.67;7.40;;;16.30;36.70;;;;;;6142921;23;20396;-77
2023/04/27 11:23:01;;;;;;;7.77;6.57;;;16.40;36.40;;;;;;6094595;23;20388;-76
2023/04/27 11:25:36;;;;;;;8.63;6.90;;;16.40;36.10;;;;;;6120683;23;20387;-77
2023/04/27 11:28:03;;;;;;;10.23;8.47;;;16.40;36.80;;;;;;6118347;23;20195;-76
2023/04/27 11:30:30;;;;;;;10.10;6.33;;;16.50;35.40;;;;;;6120152;23;20439;-76
2023/04/27 11:32:56;;;;;;;12.67;8.63;;;16.40;35.40;;;;;;6094329;23;20478;-76
2023/04/27 11:35:32;;;;;;;11.63;8.07;;;16.40;35.30;;;;;;6120718;23;20403;-76
2023/04/27 11:37:58;;;;;;;11.87;7.37;;;16.50;35.00;;;;;;6118788;23;20155;-75
2023/04/27 11:40:26;;;;;;;10.10;6.27;;;16.60;35.30;;;;;;6143462;23;20535;-76
2023/04/27 11:42:58;;;;;;;12.40;8.20;;;16.50;35.30;;;;;;6143227;23;20166;-77
2023/04/27 11:45:26;;;;;;;10.10;6.47;;;16.50;35.10;;;;;;6119383;23;20385;-78
2023/04/27 11:47:52;;;;;;;10.87;8.50;;;16.60;35.20;;;;;;6120576;23;20383;-76
2023/04/27 11:50:18;;;;;;;8.67;6.87;;;16.60;35.50;;;;;;6148135;23;20399;-77
2023/04/27 11:52:48;;;;;;;10.30;6.93;;;16.50;35.40;;;;;;6146606;23;20395;-76
2023/04/27 11:55:16;;;;;;;12.40;7.50;;;16.60;35.50;;;;;;6143991;23;20422;-77
2023/04/27 11:57:42;;;;;;;8.30;6.80;;;16.60;35.60;;;;;;6143999;23;20423;-76
2023/04/27 12:00:15;;;;;;;9.63;7.23;;;16.70;35.30;;;;;;6117818;23;20395;-76
2023/04/27 12:02:42;;;;;;;8.27;6.63;;;16.70;35.40;;;;;;6121411;23;20138;-77
2023/04/27 12:05:08;;;;;;;9.53;6.43;;;16.60;35.40;;;;;;6119989;23;20407;-78
2023/04/27 12:07:34;;;;;;;9.10;6.03;;;16.60;35.30;;;;;;6095465;23;20378;-77
2023/04/27 12:10:00;;;;;;;6.80;5.50;;;16.60;35.40;;;;;;6094318;23;20415;-75
2023/04/27 12:12:26;;;;;;;12.10;8.47;;;16.60;35.30;;;;;;6120319;23;20387;-77
2023/04/27 12:14:53;;;;;;;9.67;7.70;;;16.50;34.90;;;;;;6120067;23;20419;-78
2023/04/27 12:17:19;;;;;;;12.07;10.07;;;16.60;34.90;;;;;;6119163;23;20137;-77
2023/04/27 12:19:45;;;;;;;11.23;7.57;;;16.50;34.40;;;;;;6091737;23;20490;-76
2023/04/27 12:22:11;;;;;;;15.13;7.70;;;16.40;34.80;;;;;;6117516;23;20136;-76
2023/04/27 12:24:39;;;;;;;10.73;8.10;;;16.30;34.70;;;;;;6094328;23;20163;-76
2023/04/27 12:27:06;;;;;;;9.13;5.03;;;16.30;35.10;;;;;;6118059;23;20360;-77
2023/04/27 12:29:34;;;;;;;8.13;6.70;;;16.20;35.40;;;;;;6141971;23;20160;-77
2023/04/27 12:32:00;;;;;;;10.00;7.80;;;16.30;35.50;;;;;;6115401;23;20423;-75
2023/04/27 12:34:27;;;;;;;12.57;8.13;;;16.50;34.90;;;;;;6122987;23;20359;-76
2023/04/27 12:36:53;;;;;;;12.73;9.97;;;16.70;34.10;;;;;;6070108;23;20379;-75
2023/04/27 12:39:29;;;;;;;13.00;6.67;;;16.60;34.00;;;;;;6092924;23;20457;-76
2023/04/27 12:42:02;;;;;;;9.10;7.60;;;16.60;34.50;;;;;;6119510;23;20504;-77
2023/04/27 12:44:29;;;;;;;10.90;8.80;;;16.50;34.30;;;;;;6123107;23;20348;-76
2023/04/27 12:46:58;;;;;;;7.57;6.80;;;16.60;34.40;;;;;;6119952;23;20436;-77
2023/04/27 12:49:35;;;;;;;19.77;12.60;;;16.40;34.60;;;;;;6146199;23;20409;-77